首页
METAR-TAF:

METAR-TAF

机场 :

McEntire Joint National Guard Base

Eastover, 南卡罗来纳州, 美国

纬度: 33-55N, 经度: 080-48W, 海拔: 77米

当前天气观测

该预报发布于17分钟前的17:56 UTC
风速6节,风向北转东北
温度 4°C
湿度 100%
气压 1018 hPa
能見度: 2.4公里
多云层高于500英尺
阴天层高于900英尺
小毛毛雨, 轻雾

METAR: KMMT 101756Z 02006KT 1 1/2SM -DZ BR BKN005 OVC009 04/04 A3006 RMK AO2A SLP184 P0000 6//// T00390035 10042 20030 57007 $

时间: 13:13 (18:13 UTC)

预报

该预报发布于1小时和11分钟前的17:02 UTC
预报有效从10日的 17点(UTC)到 11日的 22点(UTC)
风速10节,风向,有时为15节阵风
能見度: 3200
阴天层高于800英尺
小毛毛雨, 轻雾
成为
从 11日的 00点(UTC)到 11日的 01点(UTC)
风速9节,风向北转西北
能見度: 4800
阴天层高于600英尺
小雪
成为
从 11日的 07点(UTC)到 11日的 08点(UTC)
风速9节,风向西北
能见度10公里或以上
散云层高于1000英尺
多云层高于3000英尺
成为
从 11日的 12点(UTC)到 11日的 13点(UTC)
风速9节,风向西转西北
能见度10公里或以上
天空无云

TAF: KMMT 101702Z 1017/1122 36010G15KT 3200 -DZ BR OVC008 620109 QNH3000INS BECMG 1100/1101 34009KT 4800 -SN OVC006 620069 QNH3012INS BECMG 1107/1108 31009KT 9999 NSW SCT010 BKN030 QNH3016INS BECMG 1112/1113 29009KT 9999 SKC QNH3022INS TX05/1018Z TN00/1102Z

超过4000个机场的气象观测和天气预报(METAR&TAF报告)。

可查询的气象台以黄色和红色小点在地图上表示。

将鼠标移到小点上方,可查看气象台名称。

然后点击查看天气观测和预报。

如需切换地图:点击带黑十字的绿色按钮放大地图;点击带横线的绿色按钮缩小地图;或者点击绿色箭头查看邻近地区的地图。


METAR-TAF: